CheckWX is a tool to help pilots better visualize weather data.  It is not intended as a substitute for an official pre-flight weather briefing.

16:33:20 UTC

KMAF TAF
Midland International Air and Space Port Airport
Midland, Texas, USA
KMAF 201616Z 2016/2112 21013KT P6SM SKC FM201700 24017G27KT P6SM SKC FM210100 29011KT P6SM SKC

Oct-20@
16:00 UTC

Oct-20 @ 16:00 UTC

Oct-20@
17:00 UTC

Oct-20 @ 17:00 UTC

KMAF 201616Z 2016/2112 21013KT P6SM SKC
Wind
  • 210° at 13 KTS
Cloud Levels
  • Clear skies

Oct-20@
17:00 UTC

Oct-20 @ 17:00 UTC

Oct-21@
01:00 UTC

Oct-21 @ 01:00 UTC

FM201700 24017G27KT P6SM SKC

From

From Standard forecast or significant change

Wind
  • 240° at 17 KTS
  • {Gusting to 27 KTS
Cloud Levels
  • Clear skies

Oct-21@
01:00 UTC

Oct-21 @ 01:00 UTC

Oct-21@
12:00 UTC

Oct-21 @ 12:00 UTC

FM210100 29011KT P6SM SKC

From

From Standard forecast or significant change

Wind
  • 290° at 11 KTS
Cloud Levels
  • Clear skies